Time;durP1;ratioP1;P1;durP2;ratioP2;P2;SDS_P1;SDS_P2;PMS_P1;PMS_P2;Temp;Humidity;BMP_temperature;BMP_pressure;BME280_temperature;BME280_humidity;BME280_pressure;Samples;Min_cycle;Max_cycle;Signal;HPM_P1;HPM_P2
2022/11/30 00:00:53;;;;;;;117.72;65.68;;;;;;;-0.57;100.00;100440.03;5091539;28;20051;-77
2022/11/30 00:03:19;;;;;;;121.35;69.90;;;;;;;-0.65;100.00;100424.59;5092160;28;20013;-77
2022/11/30 00:05:44;;;;;;;116.78;66.13;;;;;;;-0.64;100.00;100428.88;5093594;28;20076;-77
2022/11/30 00:08:09;;;;;;;119.90;68.25;;;;;;;-0.68;100.00;100426.25;5096367;28;20016;-77
2022/11/30 00:10:37;;;;;;;106.00;64.20;;;;;;;-0.66;100.00;100424.59;5096203;28;20035;-77
2022/11/30 00:13:02;;;;;;;103.32;60.85;;;;;;;-0.70;100.00;100428.81;5096131;28;20028;-77
2022/11/30 00:15:27;;;;;;;110.18;62.50;;;;;;;-0.70;100.00;100431.38;5095940;28;20443;-77
2022/11/30 00:17:57;;;;;;;110.10;63.17;;;;;;;-0.70;100.00;100427.97;5095881;28;20346;-77
2022/11/30 00:20:23;;;;;;;104.07;60.40;;;;;;;-0.72;100.00;100440.72;5096006;28;20050;-77
2022/11/30 00:22:48;;;;;;;120.95;69.25;;;;;;;-0.68;100.00;100439.91;5095844;28;20024;-77
2022/11/30 00:25:14;;;;;;;115.32;66.95;;;;;;;-0.78;100.00;100423.59;5095862;28;20058;-77
2022/11/30 00:27:39;;;;;;;114.72;67.35;;;;;;;-0.78;100.00;100426.16;5095935;28;20027;-77
2022/11/30 00:30:06;;;;;;;118.78;69.63;;;;;;;-0.74;100.00;100441.56;5095747;28;20051;-77
2022/11/30 00:32:31;;;;;;;119.00;67.07;;;;;;;-0.74;100.00;100444.97;5095884;28;20020;-77
2022/11/30 00:34:57;;;;;;;115.50;64.65;;;;;;;-0.78;100.00;100445.78;5095513;28;20497;-77
2022/11/30 00:37:22;;;;;;;121.00;66.90;;;;;;;-0.86;100.00;100439.69;5095817;28;20028;-77
2022/11/30 00:39:48;;;;;;;117.15;66.72;;;;;;;-0.78;100.00;100448.31;5095509;28;20042;-77
2022/11/30 00:42:13;;;;;;;125.70;69.70;;;;;;;-0.87;100.00;100435.44;5095554;28;20020;-77
2022/11/30 00:44:38;;;;;;;114.90;66.45;;;;;;;-0.92;100.00;100432.81;5095320;28;20020;-77
2022/11/30 00:47:04;;;;;;;142.73;78.25;;;;;;;-0.91;100.00;100439.66;5095343;28;20020;-77
2022/11/30 00:49:29;;;;;;;116.72;66.10;;;;;;;-0.89;100.00;100439.66;5095528;28;20027;-77
2022/11/30 00:51:55;;;;;;;121.15;68.00;;;;;;;-0.89;100.00;100448.19;5095474;28;20031;-77
2022/11/30 00:54:20;;;;;;;135.60;79.20;;;;;;;-0.97;100.00;100437.00;5095568;28;20067;-77
2022/11/30 00:56:45;;;;;;;136.82;73.88;;;;;;;-0.98;100.00;100432.72;5077001;28;20028;-77
2022/11/30 00:59:11;;;;;;;126.35;68.70;;;;;;;-0.94;100.00;100444.72;5094930;28;20031;-77
2022/11/30 01:01:36;;;;;;;138.07;74.10;;;;;;;-0.93;100.00;100443.00;5094853;28;20075;-77
2022/11/30 01:04:02;;;;;;;142.25;78.05;;;;;;;-1.02;100.00;100430.97;5095085;28;20047;-77
2022/11/30 01:06:28;;;;;;;129.77;68.93;;;;;;;-0.99;100.00;100441.25;5095274;28;20024;-77
2022/11/30 01:08:53;;;;;;;127.75;73.40;;;;;;;-0.99;100.00;100440.38;5094938;28;20023;-77
2022/11/30 01:11:24;;;;;;;122.22;65.93;;;;;;;-1.04;100.00;100436.06;5095015;28;20456;-77
2022/11/30 01:13:51;;;;;;;130.27;73.55;;;;;;;-1.07;100.00;100437.72;5094605;28;20031;-77
2022/11/30 01:16:19;;;;;;;130.93;70.97;;;;;;;-0.99;100.00;100448.06;5094481;28;20043;-77
2022/11/30 01:18:45;;;;;;;129.90;75.28;;;;;;;-1.05;100.00;100446.28;5094413;28;20027;-77
2022/11/30 01:21:16;;;;;;;139.45;72.93;;;;;;;-1.00;100.00;100457.44;5094664;28;20073;-77
2022/11/30 01:23:42;;;;;;;139.88;76.57;;;;;;;-1.03;100.00;100453.13;5094744;28;20016;-77
2022/11/30 01:26:08;;;;;;;126.55;71.05;;;;;;;-1.04;100.00;100455.66;5094381;28;20028;-77
2022/11/30 01:28:34;;;;;;;137.77;73.97;;;;;;;-1.06;100.00;100458.19;5094531;28;20375;-77
2022/11/30 01:31:11;;;;;;;126.55;67.57;;;;;;;-1.06;100.00;100457.34;5094526;28;20020;-77
2022/11/30 01:33:37;;;;;;;144.57;78.90;;;;;;;-1.08;100.00;100461.59;5094484;28;20065;-77
2022/11/30 01:36:14;;;;;;;127.10;70.53;;;;;;;-1.12;100.00;100452.16;5094347;28;20413;-77
2022/11/30 01:38:42;;;;;;;137.50;70.78;;;;;;;-1.11;100.00;100453.88;5094394;28;20475;-77
2022/11/30 01:41:09;;;;;;;136.80;73.90;;;;;;;-1.20;100.00;100443.53;5094035;28;20024;-77
2022/11/30 01:43:42;;;;;;;122.88;64.82;;;;;;;-1.07;100.00;100479.50;5094346;28;20052;-77
2022/11/30 01:46:20;;;;;;;129.85;68.40;;;;;;;-1.07;100.00;100464.16;5094129;28;20024;-77
2022/11/30 01:48:50;;;;;;;147.48;79.85;;;;;;;-1.08;100.00;100475.22;5094295;28;20051;-77
2022/11/30 01:51:15;;;;;;;126.45;68.10;;;;;;;-1.12;100.00;100460.69;5094181;28;20516;-77
2022/11/30 01:53:41;;;;;;;137.27;70.25;;;;;;;-1.14;100.00;100466.59;5094166;28;20024;-77
2022/11/30 01:56:06;;;;;;;135.77;73.63;;;;;;;-1.21;100.00;100450.34;5093853;28;20103;-77
2022/11/30 01:58:33;;;;;;;126.55;64.85;;;;;;;-1.11;100.00;100466.66;5094510;28;20016;-77
2022/11/30 02:00:59;;;;;;;125.22;64.53;;;;;;;-1.16;100.00;100458.91;5093785;28;20047;-77
2022/11/30 02:03:48;;;;;;;129.90;69.47;;;;;;;-1.09;100.00;100468.41;5093975;28;20020;-77
2022/11/30 02:06:14;;;;;;;131.18;68.68;;;;;;;-1.11;100.00;100452.16;5093511;28;20020;-77
2022/11/30 02:08:39;;;;;;;151.18;74.57;;;;;;;-1.18;100.00;100450.38;5094043;28;20389;-77
2022/11/30 02:11:10;;;;;;;144.68;75.05;;;;;;;-1.16;100.00;100451.25;5093675;28;20073;-77
2022/11/30 02:13:47;;;;;;;141.40;72.15;;;;;;;-1.09;100.00;100462.44;5093873;28;20103;-77
2022/11/30 02:16:29;;;;;;;145.57;73.40;;;;;;;-1.08;100.00;100461.59;5093503;28;20028;-77
2022/11/30 02:18:58;;;;;;;146.45;76.95;;;;;;;-1.08;100.00;100459.88;5094018;28;20073;-77
2022/11/30 02:21:26;;;;;;;157.07;79.60;;;;;;;-1.07;100.00;100464.16;5093649;28;20028;-77
2022/11/30 02:24:10;;;;;;;159.48;78.25;;;;;;;-1.07;100.00;100459.03;5093911;28;20020;-77
2022/11/30 02:26:47;;;;;;;155.73;77.07;;;;;;;-1.13;100.00;100451.28;5093472;28;20077;-77
2022/11/30 02:29:21;;;;;;;154.18;73.25;;;;;;;-1.08;100.00;100459.03;5093202;28;20020;-77
2022/11/30 02:32:03;;;;;;;163.88;81.15;;;;;;;-1.12;100.00;100450.44;5093794;28;20020;-77
2022/11/30 02:34:31;;;;;;;158.15;75.57;;;;;;;-1.03;100.00;100468.47;5093404;28;20085;-77
2022/11/30 02:36:58;;;;;;;162.60;77.80;;;;;;;-1.05;100.00;100461.63;5093045;28;20520;-77
2022/11/30 02:39:24;;;;;;;156.50;79.10;;;;;;;-1.07;100.00;100459.03;5093148;28;20016;-77
2022/11/30 02:41:51;;;;;;;135.25;68.32;;;;;;;-1.04;100.00;100451.41;5093435;28;20097;-77
2022/11/30 02:44:16;;;;;;;159.60;77.28;;;;;;;-1.06;100.00;100449.66;5092906;28;20024;-77
2022/11/30 02:47:09;;;;;;;168.70;80.90;;;;;;;-1.11;100.00;100447.06;5093085;28;20034;-77
2022/11/30 02:49:51;;;;;;;150.43;71.38;;;;;;;-1.11;100.00;100436.81;5093051;28;20463;-77
2022/11/30 02:52:21;;;;;;;152.63;74.65;;;;;;;-1.09;100.00;100439.41;5093001;28;20024;-77
2022/11/30 02:54:46;;;;;;;147.43;71.82;;;;;;;-1.06;100.00;100460.75;5093347;28;20073;-77
2022/11/30 02:57:12;;;;;;;151.98;72.55;;;;;;;-1.02;100.00;100457.41;5093077;28;20103;-77
2022/11/30 02:59:38;;;;;;;137.80;65.57;;;;;;;-1.01;100.00;100468.50;5092674;28;20099;-77
2022/11/30 03:02:03;;;;;;;137.93;66.65;;;;;;;-1.09;100.00;100450.50;5092537;28;20039;-77
2022/11/30 03:04:28;;;;;;;153.00;71.93;;;;;;;-1.13;100.00;100443.63;5092730;28;20322;-77
2022/11/30 03:06:54;;;;;;;132.68;64.05;;;;;;;-1.07;100.00;100465.84;5092853;28;20108;-77
2022/11/30 03:09:19;;;;;;;125.88;63.42;;;;;;;-1.11;100.00;100467.50;5074479;28;20031;-77
2022/11/30 03:11:45;;;;;;;144.40;64.22;;;;;;;-1.20;100.00;100463.97;5092718;28;20028;-77
2022/11/30 03:14:10;;;;;;;148.45;66.30;;;;;;;-1.21;100.00;100477.59;5092740;28;20031;-77
2022/11/30 03:16:36;;;;;;;148.68;65.00;;;;;;;-1.23;100.00;100479.25;5092534;28;20020;-77
2022/11/30 03:19:02;;;;;;;124.05;57.60;;;;;;;-1.22;100.00;100491.19;5092228;28;20536;-77
2022/11/30 03:21:27;;;;;;;138.27;62.58;;;;;;;-1.19;100.00;100496.34;5092704;28;20103;-77
2022/11/30 03:23:52;;;;;;;146.82;66.78;;;;;;;-1.23;100.00;100484.38;5092583;28;20093;-77
2022/11/30 03:26:18;;;;;;;150.75;65.35;;;;;;;-1.25;100.00;100489.47;5092521;28;20494;-77
2022/11/30 03:28:43;;;;;;;173.27;65.35;;;;;;;-1.30;100.00;100488.53;5092339;28;20016;-77
2022/11/30 03:31:12;;;;;;;132.77;58.72;;;;;;;-1.30;100.00;100491.09;5092110;28;20107;-77
2022/11/30 03:33:41;;;;;;;135.45;61.63;;;;;;;-1.28;100.00;100492.81;5092240;28;20099;-77
2022/11/30 03:36:08;;;;;;;143.98;64.40;;;;;;;-1.24;100.00;100515.88;5092321;28;20024;-77
2022/11/30 03:38:33;;;;;;;141.20;65.80;;;;;;;-1.22;100.00;100509.97;5092465;28;20485;-77
2022/11/30 03:41:09;;;;;;;118.60;56.70;;;;;;;-1.22;100.00;100507.41;5091469;28;20024;-77
2022/11/30 03:43:35;;;;;;;118.13;57.63;;;;;;;-1.18;100.00;100508.28;5092253;28;20023;-77
2022/11/30 03:46:00;;;;;;;135.48;62.60;;;;;;;-1.17;100.00;100510.03;5091769;28;20024;-77
2022/11/30 03:48:26;;;;;;;147.13;68.93;;;;;;;-1.21;100.00;100501.44;5092369;28;20024;-77
2022/11/30 03:50:51;;;;;;;140.50;63.20;;;;;;;-1.18;100.00;100503.16;5092290;28;20455;-77
2022/11/30 03:53:18;;;;;;;155.95;64.05;;;;;;;-1.14;100.00;100517.72;5092022;28;20020;-77
2022/11/30 03:55:44;;;;;;;127.43;59.30;;;;;;;-1.18;100.00;100511.72;5091992;28;20066;-77
2022/11/30 03:58:09;;;;;;;129.82;57.40;;;;;;;-1.17;100.00;100517.69;5091763;28;20051;-77
2022/11/30 04:00:35;;;;;;;142.35;64.95;;;;;;;-1.22;100.00;100511.63;5091724;28;20371;-77
2022/11/30 04:03:01;;;;;;;138.07;65.65;;;;;;;-1.16;100.00;100517.72;5092020;28;20020;-77
2022/11/30 04:05:26;;;;;;;145.23;64.47;;;;;;;-1.23;100.00;100502.25;5092021;28;20181;-77
2022/11/30 04:07:51;;;;;;;132.77;64.63;;;;;;;-1.17;100.00;100531.34;5073874;28;20125;-77
2022/11/30 04:10:16;;;;;;;153.90;65.13;;;;;;;-1.32;100.00;100513.19;5091651;28;20020;-77
2022/11/30 04:12:42;;;;;;;135.57;59.83;;;;;;;-1.33;100.00;100530.22;5092174;28;20032;-77
2022/11/30 04:15:08;;;;;;;186.82;68.00;;;;;;;-1.33;100.00;100522.56;5091561;28;20024;-77
2022/11/30 04:17:33;;;;;;;154.82;63.05;;;;;;;-1.40;100.00;100519.88;5091834;28;20016;-77
2022/11/30 04:19:58;;;;;;;138.30;61.53;;;;;;;-1.34;100.00;100530.22;5092162;28;20016;-77
2022/11/30 04:22:24;;;;;;;167.73;67.47;;;;;;;-1.46;100.00;100522.34;5091608;28;20020;-77
2022/11/30 04:24:49;;;;;;;119.20;55.88;;;;;;;-1.50;100.00;100516.34;5073679;28;20027;-77
2022/11/30 04:27:14;;;;;;;119.43;56.60;;;;;;;-1.39;100.00;100534.38;5091524;28;20016;-77
2022/11/30 04:29:40;;;;;;;134.70;61.47;;;;;;;-1.30;100.00;100552.44;5091611;28;20024;-77
2022/11/30 04:32:05;;;;;;;128.10;62.63;;;;;;;-1.40;100.00;100530.09;5091403;28;20028;-77
2022/11/30 04:34:30;;;;;;;134.10;59.95;;;;;;;-1.30;100.00;100557.53;5091779;28;20032;-77
2022/11/30 04:36:56;;;;;;;116.20;55.42;;;;;;;-1.36;100.00;100560.84;5091743;28;20027;-77
2022/11/30 04:39:21;;;;;;;125.82;58.25;;;;;;;-1.43;100.00;100530.03;5091390;28;20474;-77
2022/11/30 04:41:47;;;;;;;125.03;57.33;;;;;;;-1.39;100.00;100544.59;5091715;28;20020;-77
2022/11/30 04:44:12;;;;;;;119.50;57.80;;;;;;;-1.35;100.00;100542.13;5091682;28;20024;-77
2022/11/30 04:46:37;;;;;;;167.65;57.75;;;;;;;-1.42;100.00;100534.34;5092104;28;20024;-77
2022/11/30 04:49:03;;;;;;;163.55;64.18;;;;;;;-1.40;100.00;100542.88;5091568;28;20024;-77
2022/11/30 04:51:28;;;;;;;139.27;58.00;;;;;;;-1.41;100.00;100557.34;5092932;28;20042;-77
2022/11/30 04:53:53;;;;;;;126.82;55.92;;;;;;;-1.46;100.00;100538.53;5095633;28;20111;-77
2022/11/30 04:56:19;;;;;;;144.05;59.40;;;;;;;-1.45;100.00;100549.63;5095334;28;20055;-77
2022/11/30 04:58:44;;;;;;;191.27;63.88;;;;;;;-1.56;100.00;100535.00;5095477;28;20051;-77
2022/11/30 05:01:09;;;;;;;145.40;57.50;;;;;;;-1.62;100.00;100534.00;5094650;28;20514;-77
2022/11/30 05:03:35;;;;;;;132.45;55.65;;;;;;;-1.58;100.00;100548.56;5095086;28;20455;-77
2022/11/30 05:06:01;;;;;;;151.65;54.60;;;;;;;-1.60;100.00;100546.00;5095165;28;20058;-77
2022/11/30 05:08:26;;;;;;;181.55;60.00;;;;;;;-1.54;100.00;100552.88;5094855;28;20483;-77
2022/11/30 05:10:55;;;;;;;120.93;54.92;;;;;;;-1.49;100.00;100566.59;5094932;28;20032;-77
2022/11/30 05:13:22;;;;;;;145.32;59.65;;;;;;;-1.57;100.00;100558.78;5094702;28;20024;-77
2022/11/30 05:15:47;;;;;;;157.73;57.05;;;;;;;-1.49;100.00;100561.47;5094788;28;20031;-77
2022/11/30 05:18:14;;;;;;;146.52;59.22;;;;;;;-1.48;100.00;100560.63;5094771;28;20020;-77
2022/11/30 05:20:40;;;;;;;138.15;58.50;;;;;;;-1.50;100.00;100547.00;5095070;28;20024;-77
2022/11/30 05:23:05;;;;;;;115.53;53.40;;;;;;;-1.45;100.00;100554.72;5076456;28;20589;-77
2022/11/30 05:25:31;;;;;;;176.60;58.05;;;;;;;-1.42;100.00;100562.47;5094681;28;20031;-77
2022/11/30 05:27:56;;;;;;;130.50;53.80;;;;;;;-1.38;100.00;100556.56;5094615;28;20020;-77
2022/11/30 05:30:21;;;;;;;118.03;54.40;;;;;;;-1.37;100.00;100559.13;5094305;28;20028;-77
2022/11/30 05:32:47;;;;;;;160.05;59.78;;;;;;;-1.41;100.00;100552.25;5094548;28;20375;-77
2022/11/30 05:35:12;;;;;;;146.05;55.15;;;;;;;-1.38;100.00;100561.66;5094338;28;20185;-77
2022/11/30 05:37:37;;;;;;;113.15;51.13;;;;;;;-1.38;100.00;100574.44;5094513;28;20482;-77
2022/11/30 05:40:03;;;;;;;129.25;52.47;;;;;;;-1.40;100.00;100573.53;5094547;28;20024;-76
2022/11/30 05:42:29;;;;;;;154.48;57.55;;;;;;;-1.46;100.00;100558.97;5094137;28;20464;-76
2022/11/30 05:44:54;;;;;;;123.03;53.17;;;;;;;-1.40;100.00;100571.00;5094235;28;20020;-77
2022/11/30 05:47:20;;;;;;;136.00;54.88;;;;;;;-1.42;100.00;100572.69;5094226;28;20016;-77
2022/11/30 05:49:45;;;;;;;147.93;59.95;;;;;;;-1.40;100.00;100578.66;5094348;28;20026;-77
2022/11/30 05:52:10;;;;;;;166.00;60.97;;;;;;;-1.42;100.00;100570.13;5094095;28;20375;-77
2022/11/30 05:54:36;;;;;;;144.75;62.65;;;;;;;-1.38;100.00;100577.84;5094110;28;20374;-77
2022/11/30 05:57:01;;;;;;;129.73;58.25;;;;;;;-1.34;100.00;100571.09;5094076;28;20051;-77
2022/11/30 05:59:27;;;;;;;183.38;58.42;;;;;;;-1.31;100.00;100578.81;5093858;28;20055;-77
2022/11/30 06:01:52;;;;;;;163.88;57.03;;;;;;;-1.42;100.00;100576.09;5093850;28;20136;-77
2022/11/30 06:04:18;;;;;;;205.45;62.63;;;;;;;-1.44;100.00;100580.28;5093354;28;20509;-77
2022/11/30 06:06:43;;;;;;;132.95;57.83;;;;;;;-1.46;100.00;100587.09;5094000;28;20363;-77
2022/11/30 06:09:09;;;;;;;175.88;61.58;;;;;;;-1.43;100.00;100593.94;5093693;28;20531;-77
2022/11/30 06:11:34;;;;;;;136.13;54.03;;;;;;;-1.47;100.00;100593.03;5093719;28;20016;-77
2022/11/30 06:13:59;;;;;;;142.13;56.10;;;;;;;-1.41;100.00;100599.94;5093538;28;20110;-77
2022/11/30 06:16:25;;;;;;;211.25;60.85;;;;;;;-1.51;100.00;100587.00;5093590;28;20028;-77
2022/11/30 06:18:51;;;;;;;144.65;56.25;;;;;;;-1.52;100.00;100590.41;5094007;28;20024;-77
2022/11/30 06:21:16;;;;;;;108.35;49.22;;;;;;;-1.45;100.00;100600.72;5093605;28;20112;-77
2022/11/30 06:23:41;;;;;;;137.38;54.20;;;;;;;-1.53;100.00;100586.09;5093598;28;20094;-77
2022/11/30 06:26:10;;;;;;;136.43;57.13;;;;;;;-1.44;100.00;100592.22;5093500;28;20016;-77
2022/11/30 06:28:36;;;;;;;118.35;52.35;;;;;;;-1.42;100.00;100596.53;5093393;28;20020;-77
2022/11/30 06:31:04;;;;;;;163.88;58.17;;;;;;;-1.39;100.00;100603.38;5093603;28;20475;-77
2022/11/30 06:33:29;;;;;;;116.25;52.53;;;;;;;-1.44;100.00;100594.78;5093137;28;20069;-77
2022/11/30 06:35:55;;;;;;;133.82;57.55;;;;;;;-1.40;100.00;100602.50;5093323;28;20054;-77
2022/11/30 06:38:22;;;;;;;131.38;56.85;;;;;;;-1.36;100.00;100595.75;5093127;28;20031;-77
2022/11/30 06:40:48;;;;;;;139.30;56.20;;;;;;;-1.32;100.00;100618.84;5093212;28;20020;-77
2022/11/30 06:43:13;;;;;;;121.00;53.28;;;;;;;-1.39;100.00;100603.38;5092905;28;20020;-77
2022/11/30 06:45:38;;;;;;;160.77;56.42;;;;;;;-1.39;100.00;100611.91;5093268;28;20020;-77
2022/11/30 06:48:04;;;;;;;106.47;49.00;;;;;;;-1.44;100.00;100615.22;5093072;28;20412;-77
2022/11/30 06:50:30;;;;;;;107.80;50.30;;;;;;;-1.48;100.00;100614.28;5092940;28;20448;-77
2022/11/30 06:52:55;;;;;;;121.47;52.95;;;;;;;-1.51;100.00;100607.44;5093011;28;20024;-77
2022/11/30 06:55:22;;;;;;;140.57;51.97;;;;;;;-1.39;100.00;100621.25;5092730;28;20478;-77
2022/11/30 06:57:48;;;;;;;115.05;52.30;;;;;;;-1.48;100.00;100616.84;5093281;28;20419;-77
2022/11/30 07:00:14;;;;;;;113.72;48.90;;;;;;;-1.38;100.00;100634.06;5092422;28;20488;-77
2022/11/30 07:02:39;;;;;;;122.97;53.50;;;;;;;-1.38;100.00;100625.56;5092664;28;20379;-77
2022/11/30 07:05:05;;;;;;;113.60;52.03;;;;;;;-1.35;100.00;100634.13;5092754;28;20024;-77
2022/11/30 07:07:30;;;;;;;108.55;48.38;;;;;;;-1.33;100.00;100632.47;5074355;28;20075;-77
2022/11/30 07:09:56;;;;;;;125.03;49.83;;;;;;;-1.34;100.00;100637.56;5092707;28;20035;-77
2022/11/30 07:12:22;;;;;;;106.68;50.58;;;;;;;-1.31;100.00;100633.34;5092690;28;20135;-77
2022/11/30 07:14:51;;;;;;;110.18;49.85;;;;;;;-1.30;100.00;100626.56;5073793;28;20363;-77
2022/11/30 07:17:17;;;;;;;111.55;50.42;;;;;;;-1.19;100.00;100639.50;5092591;28;20069;-77
2022/11/30 07:19:42;;;;;;;123.95;56.03;;;;;;;-1.21;100.00;100641.19;5092978;28;20031;-77
2022/11/30 07:22:07;;;;;;;117.95;53.70;;;;;;;-1.22;100.00;100650.53;5092569;28;20156;-77
2022/11/30 07:27:16;;;;;;;182.30;61.67;;;;;;;-1.27;100.00;100636.81;5092319;28;20096;-77
2022/11/30 07:29:42;;;;;;;167.85;61.53;;;;;;;-1.27;100.00;100652.13;5092520;28;20510;-77
2022/11/30 07:32:07;;;;;;;114.03;50.30;;;;;;;-1.34;100.00;100637.56;5092560;28;20091;-77
2022/11/30 07:34:32;;;;;;;117.85;50.75;;;;;;;-1.34;100.00;100635.00;5092076;28;20021;-77
2022/11/30 07:36:57;;;;;;;126.32;50.97;;;;;;;-1.30;100.00;100641.88;5092268;28;20028;-77
2022/11/30 07:39:23;;;;;;;114.75;46.55;;;;;;;-1.20;100.00;100658.22;5091972;28;20030;-77
2022/11/30 07:41:49;;;;;;;113.82;50.97;;;;;;;-1.18;100.00;100661.66;5092419;28;20107;-77
2022/11/30 07:44:14;;;;;;;122.15;49.47;;;;;;;-1.22;100.00;100657.31;5092151;28;20028;-77
2022/11/30 07:46:39;;;;;;;148.75;56.25;;;;;;;-1.26;100.00;100643.66;5092004;28;20016;-77
2022/11/30 07:49:06;;;;;;;124.25;50.63;;;;;;;-1.15;100.00;100669.38;5092184;28;20024;-77
2022/11/30 07:51:32;;;;;;;124.20;52.08;;;;;;;-1.18;100.00;100667.66;5091864;28;20108;-77
2022/11/30 07:53:58;;;;;;;137.30;53.22;;;;;;;-1.19;100.00;100670.16;5092023;28;20056;-76
2022/11/30 07:56:25;;;;;;;141.23;52.08;;;;;;;-1.27;100.00;100652.13;5091923;28;20482;-77
2022/11/30 07:58:53;;;;;;;116.65;50.97;;;;;;;-1.24;100.00;100659.88;5092446;28;20068;-77
2022/11/30 08:01:21;;;;;;;128.32;51.88;;;;;;;-1.16;100.00;100676.19;5091640;28;20047;-77
2022/11/30 08:03:47;;;;;;;125.57;51.42;;;;;;;-1.13;100.00;100660.91;5092260;28;20099;-77
2022/11/30 08:06:15;;;;;;;152.88;54.85;;;;;;;-1.18;100.00;100649.75;5091845;28;20103;-77
2022/11/30 08:08:43;;;;;;;127.60;52.78;;;;;;;-1.04;100.00;100666.19;5092197;28;20142;-77
2022/11/30 08:11:11;;;;;;;125.78;52.47;;;;;;;-1.07;100.00;100650.78;5092047;28;20052;-77
2022/11/30 08:13:37;;;;;;;131.52;52.05;;;;;;;-1.16;100.00;100644.66;5091673;28;20043;-77
2022/11/30 08:16:05;;;;;;;129.13;52.33;;;;;;;-1.04;100.00;100666.19;5091877;28;20460;-77
2022/11/30 08:18:31;;;;;;;117.03;48.75;;;;;;;-1.16;100.00;100652.34;5091580;28;20161;-77
2022/11/30 08:21:01;;;;;;;133.02;53.15;;;;;;;-1.12;100.00;100660.06;5091721;28;20115;-77
2022/11/30 08:23:48;;;;;;;129.02;52.50;;;;;;;-1.12;100.00;100667.75;5091993;28;20023;-77
2022/11/30 08:26:19;;;;;;;118.57;51.55;;;;;;;-1.17;100.00;100663.41;5092734;28;20020;-77
2022/11/30 08:28:46;;;;;;;121.03;52.90;;;;;;;-1.19;100.00;100660.78;5095795;28;20024;-77
2022/11/30 08:31:31;;;;;;;130.50;55.28;;;;;;;-1.18;100.00;100662.53;5095844;28;20081;-77
2022/11/30 08:34:01;;;;;;;116.90;50.30;;;;;;;-1.17;100.00;100656.59;5095943;28;20020;-77
2022/11/30 08:36:27;;;;;;;;;;;;;;;-1.07;100.00;100670.38;5096096;28;20368;-77
2022/11/30 08:38:55;;;;;;;124.68;51.42;;;;;;;-1.09;100.00;100665.25;5095631;28;20252;-77
2022/11/30 08:41:21;;;;;;;124.78;53.10;;;;;;;-0.98;100.00;100674.78;5095286;28;20085;-77
2022/11/30 08:43:48;;;;;;;119.97;53.38;;;;;;;-0.91;100.00;100679.16;5095411;28;20031;-77
2022/11/30 08:46:15;;;;;;;111.97;47.88;;;;;;;-0.97;100.00;100682.47;5095550;28;20104;-77
2022/11/30 08:48:40;;;;;;;116.00;49.38;;;;;;;-1.04;100.00;100673.00;5095361;28;20059;-77
2022/11/30 08:51:09;;;;;;;100.10;45.47;;;;;;;-0.98;100.00;100678.19;5095395;28;20460;-77
2022/11/30 08:53:35;;;;;;;117.75;49.95;;;;;;;-0.96;100.00;100676.53;5095177;28;20023;-77
2022/11/30 08:56:03;;;;;;;110.03;46.70;;;;;;;-0.95;100.00;100667.16;5095254;28;20024;-77
2022/11/30 08:58:31;;;;;;;103.72;47.33;;;;;;;-0.95;100.00;100672.28;5094840;28;20111;-77
2022/11/30 09:01:13;;;;;;;97.68;44.78;;;;;;;-0.95;100.00;100691.03;5095321;28;20043;-77
2022/11/30 09:03:40;;;;;;;91.07;41.80;;;;;;;-0.98;100.00;100688.44;5095258;28;20028;-77
2022/11/30 09:06:08;;;;;;;92.55;42.35;;;;;;;-0.98;100.00;100683.31;5095139;28;20019;-77
2022/11/30 09:08:34;;;;;;;124.70;46.90;;;;;;;-1.02;100.00;100679.84;5094800;28;20069;-77
2022/11/30 09:11:11;;;;;;;100.93;46.65;;;;;;;-1.02;100.00;100691.75;5094873;28;20024;-77
2022/11/30 09:13:37;;;;;;;103.18;44.78;;;;;;;-1.04;100.00;100691.75;5094776;28;20020;-77
2022/11/30 09:16:03;;;;;;;90.63;44.08;;;;;;;-1.06;100.00;100687.44;5095063;28;20032;-77
2022/11/30 09:18:29;;;;;;;99.85;44.50;;;;;;;-1.04;100.00;100690.91;5094770;28;20042;-77
2022/11/30 09:20:59;;;;;;;95.43;44.92;;;;;;;-1.04;100.00;100683.22;5094743;28;20487;-77
2022/11/30 09:23:26;;;;;;;109.13;46.40;;;;;;;-0.99;100.00;100696.09;5094391;28;20024;-77
2022/11/30 09:25:59;;;;;;;102.07;45.45;;;;;;;-1.05;100.00;100686.63;5094747;28;20035;-77
2022/11/30 09:28:26;;;;;;;90.40;42.30;;;;;;;-1.08;100.00;100684.88;5094413;28;20028;-77
2022/11/30 09:30:52;;;;;;;101.50;46.63;;;;;;;-1.04;100.00;100696.88;5094667;28;20106;-77
2022/11/30 09:33:19;;;;;;;101.45;49.97;;;;;;;-0.98;100.00;100697.81;5094566;28;20020;-77
2022/11/30 09:35:52;;;;;;;100.72;49.03;;;;;;;-0.98;100.00;100695.25;5094249;28;20059;-77
2022/11/30 09:38:18;;;;;;;104.43;48.50;;;;;;;-0.95;100.00;100701.28;5093672;28;20023;-77
2022/11/30 09:40:44;;;;;;;113.75;51.00;;;;;;;-0.88;100.00;100699.69;5094400;28;20022;-77
2022/11/30 09:43:19;;;;;;;101.43;46.17;;;;;;;-0.87;100.00;100691.19;5094644;28;20022;-77
2022/11/30 09:45:53;;;;;;;104.88;47.00;;;;;;;-0.84;100.00;100688.69;5094457;28;20051;-77
2022/11/30 09:48:44;;;;;;;107.35;47.08;;;;;;;-0.85;100.00;100689.50;5094310;28;20020;-77
2022/11/30 09:51:16;;;;;;;99.93;45.20;;;;;;;-0.79;100.00;100699.84;5094742;28;20034;-77
2022/11/30 09:53:44;;;;;;;129.55;55.50;;;;;;;-0.79;100.00;100707.50;5094281;28;20038;-77
2022/11/30 09:56:33;;;;;;;93.18;43.03;;;;;;;-0.85;100.00;100690.34;5076135;28;20426;-77
2022/11/30 09:59:25;;;;;;;99.50;45.05;;;;;;;-0.74;100.00;100703.31;5094019;28;20016;-77
2022/11/30 10:01:51;;;;;;;101.63;45.58;;;;;;;-0.83;100.00;100695.50;4991950;28;20490;-77
2022/11/30 10:04:24;;;;;;;112.00;51.38;;;;;;;-0.83;100.00;100693.81;4992058;28;20030;-77
2022/11/30 10:07:22;;;;;;;115.68;46.22;;;;;;;-0.94;100.00;100687.66;4991801;28;20039;-77
2022/11/30 10:10:23;;;;;;;106.13;46.20;;;;;;;-0.97;100.00;100708.03;4992015;28;20366;-77
2022/11/30 10:13:05;;;;;;;;;;;;;;;-0.96;100.00;100707.22;4934779;29;20547;-77
2022/11/30 10:15:53;;;;;;;108.93;43.38;;;;;;;-0.94;100.00;100702.13;4933777;29;20343;-77
2022/11/30 10:18:49;;;;;;;101.03;44.00;;;;;;;-0.92;100.00;100695.38;4933894;29;20063;-77
2022/11/30 10:21:39;;;;;;;112.00;47.63;;;;;;;-0.91;100.00;100702.19;4933935;29;20103;-77
2022/11/30 10:24:34;;;;;;;101.53;45.47;;;;;;;-0.92;100.00;100695.38;4933870;29;20036;-77
2022/11/30 10:27:10;;;;;;;108.18;45.10;;;;;;;-0.90;100.00;100696.22;4933743;29;20035;-77
2022/11/30 10:29:40;;;;;;;104.28;44.45;;;;;;;-0.88;100.00;100694.56;4917588;29;20123;-77
2022/11/30 10:32:36;;;;;;;105.72;47.15;;;;;;;-0.84;100.00;100693.78;4933525;29;20043;-77
2022/11/30 10:35:16;;;;;;;108.65;46.85;;;;;;;-0.89;100.00;100682.59;4895553;29;20052;-77
2022/11/30 10:37:43;;;;;;;128.52;52.78;;;;;;;-0.88;100.00;100680.09;4896867;29;20489;-77
2022/11/30 10:40:46;;;;;;;108.95;46.15;;;;;;;-0.81;100.00;100688.69;4933876;29;20110;-77
2022/11/30 10:43:28;;;;;;;114.50;48.58;;;;;;;-0.82;100.00;100687.84;4895659;29;20116;-77
2022/11/30 10:45:54;;;;;;;152.98;63.30;;;;;;;-0.85;100.00;100675.00;4895461;29;20043;-77
2022/11/30 10:48:31;;;;;;;113.93;46.63;;;;;;;-0.81;100.00;100681.88;4879861;29;20393;-77
2022/11/30 10:50:59;;;;;;;114.63;46.92;;;;;;;-0.74;100.00;100693.09;4952344;28;20031;-77
2022/11/30 10:53:25;;;;;;;101.88;46.63;;;;;;;-0.70;100.00;100691.44;4952298;29;20031;-77
2022/11/30 10:56:09;;;;;;;101.38;44.28;;;;;;;-0.71;100.00;100693.16;4952444;29;20039;-77
2022/11/30 10:58:44;;;;;;;98.13;42.45;;;;;;;-0.74;100.00;100685.41;4952155;28;20054;-77
2022/11/30 11:01:28;;;;;;;94.45;44.60;;;;;;;-0.57;100.00;100695.91;4952263;28;20043;-77
2022/11/30 11:04:24;;;;;;;103.85;44.60;;;;;;;-0.52;100.00;100695.13;4952372;29;20340;-77